sensor_id;sensor_type;location;lat;lon;timestamp;P1;durP1;ratioP1;P2;durP2;ratioP2
13032;SDS011;6583;42.632;23.298;2023-07-13T00:00:19;3.85;;;3.47;;
13032;SDS011;6583;42.632;23.298;2023-07-13T00:02:47;4.05;;;3.75;;
13032;SDS011;6583;42.632;23.298;2023-07-13T00:05:15;4.65;;;3.63;;
13032;SDS011;6583;42.632;23.298;2023-07-13T00:07:42;3.90;;;3.60;;
13032;SDS011;6583;42.632;23.298;2023-07-13T00:10:11;5.53;;;3.90;;
13032;SDS011;6583;42.632;23.298;2023-07-13T00:12:38;5.18;;;3.72;;
13032;SDS011;6583;42.632;23.298;2023-07-13T00:15:06;4.55;;;3.97;;
13032;SDS011;6583;42.632;23.298;2023-07-13T00:17:38;4.53;;;3.72;;
13032;SDS011;6583;42.632;23.298;2023-07-13T00:20:05;4.00;;;3.60;;
13032;SDS011;6583;42.632;23.298;2023-07-13T00:22:34;4.45;;;3.90;;
13032;SDS011;6583;42.632;23.298;2023-07-13T00:25:01;3.65;;;3.30;;
13032;SDS011;6583;42.632;23.298;2023-07-13T00:27:28;5.63;;;3.80;;
13032;SDS011;6583;42.632;23.298;2023-07-13T00:29:56;4.18;;;3.78;;
13032;SDS011;6583;42.632;23.298;2023-07-13T00:32:23;5.60;;;4.00;;
13032;SDS011;6583;42.632;23.298;2023-07-13T00:34:51;5.53;;;3.50;;
13032;SDS011;6583;42.632;23.298;2023-07-13T00:37:17;4.15;;;3.85;;
13032;SDS011;6583;42.632;23.298;2023-07-13T00:39:45;3.97;;;3.58;;
13032;SDS011;6583;42.632;23.298;2023-07-13T00:42:12;4.35;;;3.85;;
13032;SDS011;6583;42.632;23.298;2023-07-13T00:44:39;4.22;;;3.83;;
13032;SDS011;6583;42.632;23.298;2023-07-13T00:47:05;5.70;;;3.85;;
13032;SDS011;6583;42.632;23.298;2023-07-13T00:49:33;4.07;;;3.72;;
13032;SDS011;6583;42.632;23.298;2023-07-13T00:52:02;6.20;;;4.35;;
13032;SDS011;6583;42.632;23.298;2023-07-13T00:54:32;4.15;;;3.75;;
13032;SDS011;6583;42.632;23.298;2023-07-13T00:57:03;5.50;;;4.20;;
13032;SDS011;6583;42.632;23.298;2023-07-13T00:59:32;5.55;;;4.30;;
13032;SDS011;6583;42.632;23.298;2023-07-13T01:02:02;5.40;;;4.40;;
13032;SDS011;6583;42.632;23.298;2023-07-13T01:04:29;4.97;;;3.88;;
13032;SDS011;6583;42.632;23.298;2023-07-13T01:06:56;4.40;;;4.00;;
13032;SDS011;6583;42.632;23.298;2023-07-13T01:09:25;4.90;;;4.40;;
13032;SDS011;6583;42.632;23.298;2023-07-13T01:11:52;4.80;;;4.22;;
13032;SDS011;6583;42.632;23.298;2023-07-13T01:14:20;4.97;;;4.50;;
13032;SDS011;6583;42.632;23.298;2023-07-13T01:16:47;4.72;;;4.32;;
13032;SDS011;6583;42.632;23.298;2023-07-13T01:19:17;5.25;;;4.15;;
13032;SDS011;6583;42.632;23.298;2023-07-13T01:22:02;5.45;;;4.68;;
13032;SDS011;6583;42.632;23.298;2023-07-13T01:24:29;5.00;;;4.50;;
13032;SDS011;6583;42.632;23.298;2023-07-13T01:26:56;4.72;;;4.32;;
13032;SDS011;6583;42.632;23.298;2023-07-13T01:29:23;4.70;;;4.18;;
13032;SDS011;6583;42.632;23.298;2023-07-13T01:31:49;5.47;;;4.80;;
13032;SDS011;6583;42.632;23.298;2023-07-13T01:34:16;5.47;;;4.50;;
13032;SDS011;6583;42.632;23.298;2023-07-13T01:36:42;5.03;;;4.50;;
13032;SDS011;6583;42.632;23.298;2023-07-13T01:39:10;5.65;;;4.55;;
13032;SDS011;6583;42.632;23.298;2023-07-13T01:41:37;5.35;;;4.82;;
13032;SDS011;6583;42.632;23.298;2023-07-13T01:44:04;5.82;;;4.68;;
13032;SDS011;6583;42.632;23.298;2023-07-13T01:46:31;5.15;;;4.65;;
13032;SDS011;6583;42.632;23.298;2023-07-13T01:48:57;5.22;;;4.55;;
13032;SDS011;6583;42.632;23.298;2023-07-13T01:51:24;7.78;;;4.53;;
13032;SDS011;6583;42.632;23.298;2023-07-13T01:53:51;4.90;;;4.40;;
13032;SDS011;6583;42.632;23.298;2023-07-13T01:56:19;4.97;;;4.55;;
13032;SDS011;6583;42.632;23.298;2023-07-13T01:58:46;8.23;;;4.95;;
13032;SDS011;6583;42.632;23.298;2023-07-13T02:01:13;9.98;;;4.78;;
13032;SDS011;6583;42.632;23.298;2023-07-13T02:03:39;6.25;;;4.97;;
13032;SDS011;6583;42.632;23.298;2023-07-13T02:06:06;6.03;;;4.63;;
13032;SDS011;6583;42.632;23.298;2023-07-13T02:08:33;5.30;;;4.68;;
13032;SDS011;6583;42.632;23.298;2023-07-13T02:11:00;5.55;;;4.97;;
13032;SDS011;6583;42.632;23.298;2023-07-13T02:13:30;4.95;;;4.35;;
13032;SDS011;6583;42.632;23.298;2023-07-13T02:15:56;5.90;;;4.57;;
13032;SDS011;6583;42.632;23.298;2023-07-13T02:18:23;5.68;;;4.50;;
13032;SDS011;6583;42.632;23.298;2023-07-13T02:20:50;6.50;;;4.63;;
13032;SDS011;6583;42.632;23.298;2023-07-13T02:23:16;6.07;;;4.82;;
13032;SDS011;6583;42.632;23.298;2023-07-13T02:25:43;5.07;;;4.60;;
13032;SDS011;6583;42.632;23.298;2023-07-13T02:28:10;5.50;;;5.00;;
13032;SDS011;6583;42.632;23.298;2023-07-13T02:30:39;5.70;;;5.10;;
13032;SDS011;6583;42.632;23.298;2023-07-13T02:33:05;6.47;;;5.28;;
13032;SDS011;6583;42.632;23.298;2023-07-13T02:35:32;6.45;;;5.20;;
13032;SDS011;6583;42.632;23.298;2023-07-13T02:37:59;6.03;;;4.88;;
13032;SDS011;6583;42.632;23.298;2023-07-13T02:40:25;5.72;;;5.20;;
13032;SDS011;6583;42.632;23.298;2023-07-13T02:42:52;7.55;;;4.97;;
13032;SDS011;6583;42.632;23.298;2023-07-13T02:45:19;5.68;;;4.90;;
13032;SDS011;6583;42.632;23.298;2023-07-13T02:47:46;5.70;;;5.20;;
13032;SDS011;6583;42.632;23.298;2023-07-13T02:50:13;5.55;;;4.63;;
13032;SDS011;6583;42.632;23.298;2023-07-13T02:52:40;5.78;;;5.18;;
13032;SDS011;6583;42.632;23.298;2023-07-13T02:55:07;7.78;;;5.25;;
13032;SDS011;6583;42.632;23.298;2023-07-13T02:57:34;5.68;;;5.00;;
13032;SDS011;6583;42.632;23.298;2023-07-13T03:00:00;6.70;;;5.00;;
13032;SDS011;6583;42.632;23.298;2023-07-13T03:02:30;6.82;;;4.75;;
13032;SDS011;6583;42.632;23.298;2023-07-13T03:04:59;6.00;;;4.95;;
13032;SDS011;6583;42.632;23.298;2023-07-13T03:07:26;5.50;;;5.03;;
13032;SDS011;6583;42.632;23.298;2023-07-13T03:09:54;7.18;;;5.65;;
13032;SDS011;6583;42.632;23.298;2023-07-13T03:12:21;5.97;;;5.47;;
13032;SDS011;6583;42.632;23.298;2023-07-13T03:14:48;5.57;;;5.03;;
13032;SDS011;6583;42.632;23.298;2023-07-13T03:17:15;6.63;;;5.13;;
13032;SDS011;6583;42.632;23.298;2023-07-13T03:19:41;8.80;;;5.22;;
13032;SDS011;6583;42.632;23.298;2023-07-13T03:22:10;6.45;;;5.50;;
13032;SDS011;6583;42.632;23.298;2023-07-13T03:24:36;5.53;;;5.03;;
13032;SDS011;6583;42.632;23.298;2023-07-13T03:27:03;6.40;;;5.80;;
13032;SDS011;6583;42.632;23.298;2023-07-13T03:29:31;5.80;;;5.20;;
13032;SDS011;6583;42.632;23.298;2023-07-13T03:31:58;5.55;;;5.05;;
13032;SDS011;6583;42.632;23.298;2023-07-13T03:34:24;6.40;;;5.57;;
13032;SDS011;6583;42.632;23.298;2023-07-13T03:36:53;5.93;;;5.38;;
13032;SDS011;6583;42.632;23.298;2023-07-13T03:39:22;6.65;;;5.50;;
13032;SDS011;6583;42.632;23.298;2023-07-13T03:41:49;7.70;;;5.72;;
13032;SDS011;6583;42.632;23.298;2023-07-13T03:44:15;6.57;;;5.70;;
13032;SDS011;6583;42.632;23.298;2023-07-13T03:46:43;6.43;;;5.65;;
13032;SDS011;6583;42.632;23.298;2023-07-13T03:49:10;7.13;;;5.80;;
13032;SDS011;6583;42.632;23.298;2023-07-13T03:51:37;6.50;;;5.72;;
13032;SDS011;6583;42.632;23.298;2023-07-13T03:54:04;5.90;;;5.40;;
13032;SDS011;6583;42.632;23.298;2023-07-13T03:56:32;7.13;;;5.88;;
13032;SDS011;6583;42.632;23.298;2023-07-13T03:58:59;5.72;;;5.22;;
13032;SDS011;6583;42.632;23.298;2023-07-13T04:01:26;6.35;;;5.75;;
13032;SDS011;6583;42.632;23.298;2023-07-13T04:03:52;6.15;;;5.57;;
13032;SDS011;6583;42.632;23.298;2023-07-13T04:06:20;6.68;;;5.90;;
13032;SDS011;6583;42.632;23.298;2023-07-13T04:08:50;7.05;;;6.05;;
13032;SDS011;6583;42.632;23.298;2023-07-13T04:11:18;6.60;;;5.90;;
13032;SDS011;6583;42.632;23.298;2023-07-13T04:13:46;6.80;;;6.10;;
13032;SDS011;6583;42.632;23.298;2023-07-13T04:16:14;7.93;;;5.57;;
13032;SDS011;6583;42.632;23.298;2023-07-13T04:18:42;6.57;;;5.97;;
13032;SDS011;6583;42.632;23.298;2023-07-13T04:21:09;6.57;;;5.97;;
13032;SDS011;6583;42.632;23.298;2023-07-13T04:23:36;6.78;;;5.88;;
13032;SDS011;6583;42.632;23.298;2023-07-13T04:26:04;6.15;;;5.65;;
13032;SDS011;6583;42.632;23.298;2023-07-13T04:28:31;6.47;;;5.88;;
13032;SDS011;6583;42.632;23.298;2023-07-13T04:30:59;13.70;;;6.45;;
13032;SDS011;6583;42.632;23.298;2023-07-13T04:33:27;7.38;;;6.13;;
13032;SDS011;6583;42.632;23.298;2023-07-13T04:35:54;8.10;;;6.00;;
13032;SDS011;6583;42.632;23.298;2023-07-13T04:38:22;7.03;;;6.05;;
13032;SDS011;6583;42.632;23.298;2023-07-13T04:40:50;8.07;;;6.25;;
13032;SDS011;6583;42.632;23.298;2023-07-13T04:43:17;7.90;;;6.53;;
13032;SDS011;6583;42.632;23.298;2023-07-13T04:45:44;7.82;;;6.75;;
13032;SDS011;6583;42.632;23.298;2023-07-13T04:48:12;8.80;;;8.00;;
13032;SDS011;6583;42.632;23.298;2023-07-13T04:50:39;7.80;;;6.80;;
13032;SDS011;6583;42.632;23.298;2023-07-13T04:53:06;8.80;;;7.60;;
13032;SDS011;6583;42.632;23.298;2023-07-13T04:55:33;8.73;;;7.22;;
13032;SDS011;6583;42.632;23.298;2023-07-13T04:57:59;8.75;;;7.95;;
13032;SDS011;6583;42.632;23.298;2023-07-13T05:00:27;9.15;;;7.40;;
13032;SDS011;6583;42.632;23.298;2023-07-13T05:02:55;9.15;;;7.00;;
13032;SDS011;6583;42.632;23.298;2023-07-13T05:05:25;7.55;;;6.80;;
13032;SDS011;6583;42.632;23.298;2023-07-13T05:07:52;8.02;;;7.20;;
13032;SDS011;6583;42.632;23.298;2023-07-13T05:10:19;7.47;;;6.57;;
13032;SDS011;6583;42.632;23.298;2023-07-13T05:12:46;7.63;;;6.90;;
13032;SDS011;6583;42.632;23.298;2023-07-13T05:15:13;12.85;;;9.13;;
13032;SDS011;6583;42.632;23.298;2023-07-13T05:17:40;11.35;;;9.00;;
13032;SDS011;6583;42.632;23.298;2023-07-13T05:20:07;13.50;;;9.27;;
13032;SDS011;6583;42.632;23.298;2023-07-13T05:22:36;11.10;;;9.90;;
13032;SDS011;6583;42.632;23.298;2023-07-13T05:25:04;13.60;;;9.55;;
13032;SDS011;6583;42.632;23.298;2023-07-13T05:27:32;14.07;;;10.05;;
13032;SDS011;6583;42.632;23.298;2023-07-13T05:29:58;13.63;;;9.05;;
13032;SDS011;6583;42.632;23.298;2023-07-13T05:32:25;12.77;;;9.90;;
13032;SDS011;6583;42.632;23.298;2023-07-13T05:34:52;10.82;;;9.30;;
13032;SDS011;6583;42.632;23.298;2023-07-13T05:37:18;10.48;;;9.35;;
13032;SDS011;6583;42.632;23.298;2023-07-13T05:39:46;8.65;;;7.85;;
13032;SDS011;6583;42.632;23.298;2023-07-13T05:42:13;10.65;;;8.75;;
13032;SDS011;6583;42.632;23.298;2023-07-13T05:44:40;13.27;;;9.20;;
13032;SDS011;6583;42.632;23.298;2023-07-13T05:47:06;11.88;;;9.07;;
13032;SDS011;6583;42.632;23.298;2023-07-13T05:49:33;13.55;;;9.48;;
13032;SDS011;6583;42.632;23.298;2023-07-13T05:52:00;11.05;;;8.73;;
13032;SDS011;6583;42.632;23.298;2023-07-13T05:54:26;13.32;;;9.02;;
13032;SDS011;6583;42.632;23.298;2023-07-13T05:56:55;16.73;;;8.88;;
13032;SDS011;6583;42.632;23.298;2023-07-13T05:59:21;9.93;;;8.75;;
13032;SDS011;6583;42.632;23.298;2023-07-13T06:01:48;13.75;;;8.70;;
13032;SDS011;6583;42.632;23.298;2023-07-13T06:04:17;13.43;;;9.30;;
13032;SDS011;6583;42.632;23.298;2023-07-13T06:06:43;11.68;;;9.57;;
13032;SDS011;6583;42.632;23.298;2023-07-13T06:09:10;12.20;;;9.55;;
13032;SDS011;6583;42.632;23.298;2023-07-13T06:11:37;14.85;;;9.80;;
13032;SDS011;6583;42.632;23.298;2023-07-13T06:14:05;14.20;;;9.68;;
13032;SDS011;6583;42.632;23.298;2023-07-13T06:16:31;10.20;;;8.60;;
13032;SDS011;6583;42.632;23.298;2023-07-13T06:18:58;15.82;;;9.48;;
13032;SDS011;6583;42.632;23.298;2023-07-13T06:21:25;11.02;;;8.52;;
13032;SDS011;6583;42.632;23.298;2023-07-13T06:23:51;12.10;;;8.65;;
13032;SDS011;6583;42.632;23.298;2023-07-13T06:26:19;14.57;;;9.13;;
13032;SDS011;6583;42.632;23.298;2023-07-13T06:28:46;11.20;;;8.80;;
13032;SDS011;6583;42.632;23.298;2023-07-13T06:31:15;8.40;;;7.60;;
13032;SDS011;6583;42.632;23.298;2023-07-13T06:33:43;10.90;;;8.30;;
13032;SDS011;6583;42.632;23.298;2023-07-13T06:36:10;8.13;;;7.30;;
13032;SDS011;6583;42.632;23.298;2023-07-13T06:38:37;14.82;;;8.23;;
13032;SDS011;6583;42.632;23.298;2023-07-13T06:41:05;10.13;;;8.32;;
13032;SDS011;6583;42.632;23.298;2023-07-13T06:43:32;13.10;;;9.00;;
13032;SDS011;6583;42.632;23.298;2023-07-13T06:45:59;12.32;;;8.98;;
13032;SDS011;6583;42.632;23.298;2023-07-13T06:48:27;9.75;;;8.75;;
13032;SDS011;6583;42.632;23.298;2023-07-13T06:50:54;10.20;;;9.25;;
13032;SDS011;6583;42.632;23.298;2023-07-13T06:53:22;12.25;;;9.80;;
13032;SDS011;6583;42.632;23.298;2023-07-13T06:55:49;11.23;;;9.32;;
13032;SDS011;6583;42.632;23.298;2023-07-13T06:58:17;12.07;;;10.77;;
13032;SDS011;6583;42.632;23.298;2023-07-13T07:00:44;15.43;;;10.30;;
13032;SDS011;6583;42.632;23.298;2023-07-13T07:03:12;16.23;;;9.95;;
13032;SDS011;6583;42.632;23.298;2023-07-13T07:05:40;12.75;;;9.70;;
13032;SDS011;6583;42.632;23.298;2023-07-13T07:08:06;13.30;;;9.70;;
13032;SDS011;6583;42.632;23.298;2023-07-13T07:10:34;11.68;;;9.95;;
13032;SDS011;6583;42.632;23.298;2023-07-13T07:13:01;16.38;;;10.25;;
13032;SDS011;6583;42.632;23.298;2023-07-13T07:15:28;13.57;;;10.15;;
13032;SDS011;6583;42.632;23.298;2023-07-13T07:17:56;15.32;;;10.35;;
13032;SDS011;6583;42.632;23.298;2023-07-13T07:20:22;11.98;;;9.60;;
13032;SDS011;6583;42.632;23.298;2023-07-13T07:22:50;14.32;;;10.05;;
13032;SDS011;6583;42.632;23.298;2023-07-13T07:25:17;14.43;;;10.65;;
13032;SDS011;6583;42.632;23.298;2023-07-13T07:27:44;13.27;;;9.88;;
13032;SDS011;6583;42.632;23.298;2023-07-13T07:30:11;12.80;;;10.45;;
13032;SDS011;6583;42.632;23.298;2023-07-13T07:32:39;15.05;;;10.52;;
13032;SDS011;6583;42.632;23.298;2023-07-13T07:35:07;16.65;;;10.05;;
13032;SDS011;6583;42.632;23.298;2023-07-13T07:37:33;13.50;;;10.55;;
13032;SDS011;6583;42.632;23.298;2023-07-13T07:40:02;11.68;;;8.90;;
13032;SDS011;6583;42.632;23.298;2023-07-13T07:42:29;10.27;;;9.20;;
13032;SDS011;6583;42.632;23.298;2023-07-13T07:44:55;11.68;;;9.63;;
13032;SDS011;6583;42.632;23.298;2023-07-13T07:47:22;15.52;;;9.35;;
13032;SDS011;6583;42.632;23.298;2023-07-13T07:49:49;11.85;;;9.70;;
13032;SDS011;6583;42.632;23.298;2023-07-13T07:52:16;13.07;;;9.40;;
13032;SDS011;6583;42.632;23.298;2023-07-13T07:54:43;12.32;;;9.45;;
13032;SDS011;6583;42.632;23.298;2023-07-13T07:57:11;12.13;;;9.38;;
13032;SDS011;6583;42.632;23.298;2023-07-13T07:59:37;11.45;;;9.70;;
13032;SDS011;6583;42.632;23.298;2023-07-13T08:02:04;10.82;;;9.55;;
13032;SDS011;6583;42.632;23.298;2023-07-13T08:04:32;12.30;;;9.93;;
13032;SDS011;6583;42.632;23.298;2023-07-13T08:06:58;11.15;;;9.73;;
13032;SDS011;6583;42.632;23.298;2023-07-13T08:09:27;11.98;;;9.57;;
13032;SDS011;6583;42.632;23.298;2023-07-13T08:11:54;10.98;;;9.20;;
13032;SDS011;6583;42.632;23.298;2023-07-13T08:14:22;10.82;;;9.70;;
13032;SDS011;6583;42.632;23.298;2023-07-13T08:16:49;10.73;;;9.20;;
13032;SDS011;6583;42.632;23.298;2023-07-13T08:19:15;10.75;;;9.55;;
13032;SDS011;6583;42.632;23.298;2023-07-13T08:21:42;10.40;;;9.15;;
13032;SDS011;6583;42.632;23.298;2023-07-13T08:24:09;10.70;;;8.63;;
13032;SDS011;6583;42.632;23.298;2023-07-13T08:26:36;11.15;;;9.05;;
13032;SDS011;6583;42.632;23.298;2023-07-13T08:29:02;13.80;;;9.35;;
13032;SDS011;6583;42.632;23.298;2023-07-13T08:31:31;12.57;;;9.73;;
13032;SDS011;6583;42.632;23.298;2023-07-13T08:33:58;10.77;;;8.95;;
13032;SDS011;6583;42.632;23.298;2023-07-13T08:36:25;10.13;;;9.15;;
13032;SDS011;6583;42.632;23.298;2023-07-13T08:38:52;10.30;;;9.10;;
13032;SDS011;6583;42.632;23.298;2023-07-13T08:41:21;11.07;;;9.93;;
13032;SDS011;6583;42.632;23.298;2023-07-13T08:43:50;10.05;;;9.05;;
13032;SDS011;6583;42.632;23.298;2023-07-13T08:46:23;11.13;;;9.43;;
13032;SDS011;6583;42.632;23.298;2023-07-13T08:48:56;10.18;;;9.18;;
13032;SDS011;6583;42.632;23.298;2023-07-13T08:51:26;11.10;;;9.20;;
13032;SDS011;6583;42.632;23.298;2023-07-13T08:54:01;10.50;;;9.25;;
13032;SDS011;6583;42.632;23.298;2023-07-13T08:56:31;10.77;;;9.27;;
13032;SDS011;6583;42.632;23.298;2023-07-13T08:59:00;12.00;;;8.68;;
13032;SDS011;6583;42.632;23.298;2023-07-13T09:01:33;10.40;;;8.98;;
13032;SDS011;6583;42.632;23.298;2023-07-13T09:04:19;10.43;;;8.77;;
13032;SDS011;6583;42.632;23.298;2023-07-13T09:06:55;10.60;;;8.73;;
13032;SDS011;6583;42.632;23.298;2023-07-13T09:09:32;10.82;;;8.77;;
13032;SDS011;6583;42.632;23.298;2023-07-13T09:12:14;9.68;;;8.60;;
13032;SDS011;6583;42.632;23.298;2023-07-13T09:14:47;10.30;;;8.15;;
13032;SDS011;6583;42.632;23.298;2023-07-13T09:17:17;10.20;;;8.20;;
13032;SDS011;6583;42.632;23.298;2023-07-13T09:19:49;10.70;;;8.50;;
13032;SDS011;6583;42.632;23.298;2023-07-13T09:22:23;9.27;;;8.32;;
13032;SDS011;6583;42.632;23.298;2023-07-13T09:24:55;11.45;;;7.97;;
13032;SDS011;6583;42.632;23.298;2023-07-13T09:27:27;11.07;;;8.45;;
13032;SDS011;6583;42.632;23.298;2023-07-13T09:30:00;10.32;;;8.52;;
13032;SDS011;6583;42.632;23.298;2023-07-13T09:32:30;8.60;;;7.80;;
13032;SDS011;6583;42.632;23.298;2023-07-13T09:35:00;8.88;;;7.93;;
13032;SDS011;6583;42.632;23.298;2023-07-13T09:37:29;12.05;;;8.13;;
13032;SDS011;6583;42.632;23.298;2023-07-13T09:39:59;9.23;;;8.43;;
13032;SDS011;6583;42.632;23.298;2023-07-13T09:42:30;10.02;;;8.02;;
13032;SDS011;6583;42.632;23.298;2023-07-13T09:45:00;9.63;;;8.63;;
13032;SDS011;6583;42.632;23.298;2023-07-13T09:47:29;9.07;;;8.25;;
13032;SDS011;6583;42.632;23.298;2023-07-13T09:49:58;11.98;;;7.90;;
13032;SDS011;6583;42.632;23.298;2023-07-13T09:52:29;9.55;;;8.65;;
13032;SDS011;6583;42.632;23.298;2023-07-13T09:55:11;9.45;;;8.55;;
13032;SDS011;6583;42.632;23.298;2023-07-13T09:57:50;9.38;;;8.40;;
13032;SDS011;6583;42.632;23.298;2023-07-13T10:00:20;9.85;;;8.32;;
13032;SDS011;6583;42.632;23.298;2023-07-13T10:02:52;11.35;;;9.02;;
13032;SDS011;6583;42.632;23.298;2023-07-13T10:05:26;9.85;;;8.85;;
13032;SDS011;6583;42.632;23.298;2023-07-13T10:07:53;9.88;;;8.07;;
13032;SDS011;6583;42.632;23.298;2023-07-13T10:10:22;11.40;;;8.63;;
13032;SDS011;6583;42.632;23.298;2023-07-13T10:12:49;9.15;;;8.25;;
13032;SDS011;6583;42.632;23.298;2023-07-13T10:15:19;11.25;;;7.78;;
13032;SDS011;6583;42.632;23.298;2023-07-13T10:17:48;13.15;;;8.82;;
13032;SDS011;6583;42.632;23.298;2023-07-13T10:20:16;9.88;;;8.40;;
13032;SDS011;6583;42.632;23.298;2023-07-13T10:22:46;13.02;;;9.30;;
13032;SDS011;6583;42.632;23.298;2023-07-13T10:25:19;12.90;;;9.00;;
13032;SDS011;6583;42.632;23.298;2023-07-13T10:27:47;14.45;;;9.50;;
13032;SDS011;6583;42.632;23.298;2023-07-13T10:30:19;12.55;;;9.07;;
13032;SDS011;6583;42.632;23.298;2023-07-13T10:32:50;10.38;;;8.77;;
13032;SDS011;6583;42.632;23.298;2023-07-13T10:35:19;11.63;;;8.93;;
13032;SDS011;6583;42.632;23.298;2023-07-13T10:37:51;9.65;;;8.63;;
13032;SDS011;6583;42.632;23.298;2023-07-13T10:40:21;12.98;;;8.95;;
13032;SDS011;6583;42.632;23.298;2023-07-13T10:42:52;13.07;;;8.98;;
13032;SDS011;6583;42.632;23.298;2023-07-13T10:45:23;14.55;;;8.93;;
13032;SDS011;6583;42.632;23.298;2023-07-13T10:47:51;9.90;;;8.48;;
13032;SDS011;6583;42.632;23.298;2023-07-13T10:50:21;9.75;;;8.65;;
13032;SDS011;6583;42.632;23.298;2023-07-13T10:52:52;10.60;;;7.95;;
13032;SDS011;6583;42.632;23.298;2023-07-13T10:55:30;11.48;;;8.02;;
13032;SDS011;6583;42.632;23.298;2023-07-13T10:58:02;9.85;;;7.85;;
13032;SDS011;6583;42.632;23.298;2023-07-13T11:00:42;12.10;;;9.43;;
13032;SDS011;6583;42.632;23.298;2023-07-13T11:03:13;13.30;;;8.52;;
13032;SDS011;6583;42.632;23.298;2023-07-13T11:05:41;9.95;;;8.68;;
13032;SDS011;6583;42.632;23.298;2023-07-13T11:08:16;11.40;;;8.73;;
13032;SDS011;6583;42.632;23.298;2023-07-13T11:10:51;7.78;;;6.57;;
13032;SDS011;6583;42.632;23.298;2023-07-13T11:13:38;6.95;;;6.22;;
13032;SDS011;6583;42.632;23.298;2023-07-13T11:16:37;7.97;;;6.07;;
13032;SDS011;6583;42.632;23.298;2023-07-13T11:19:24;7.85;;;6.40;;
13032;SDS011;6583;42.632;23.298;2023-07-13T11:22:01;6.82;;;6.10;;
13032;SDS011;6583;42.632;23.298;2023-07-13T11:24:51;8.20;;;6.22;;
13032;SDS011;6583;42.632;23.298;2023-07-13T11:27:33;9.57;;;7.57;;
13032;SDS011;6583;42.632;23.298;2023-07-13T11:30:07;12.85;;;8.00;;
13032;SDS011;6583;42.632;23.298;2023-07-13T11:32:44;9.38;;;8.40;;
13032;SDS011;6583;42.632;23.298;2023-07-13T11:35:12;8.80;;;7.90;;
13032;SDS011;6583;42.632;23.298;2023-07-13T11:37:49;7.85;;;7.03;;
13032;SDS011;6583;42.632;23.298;2023-07-13T11:40:19;9.02;;;8.13;;
13032;SDS011;6583;42.632;23.298;2023-07-13T11:42:48;8.05;;;7.35;;
13032;SDS011;6583;42.632;23.298;2023-07-13T11:45:19;10.45;;;7.60;;
13032;SDS011;6583;42.632;23.298;2023-07-13T11:47:48;8.98;;;7.78;;
13032;SDS011;6583;42.632;23.298;2023-07-13T11:50:18;9.30;;;7.70;;
13032;SDS011;6583;42.632;23.298;2023-07-13T11:52:46;9.23;;;7.35;;
13032;SDS011;6583;42.632;23.298;2023-07-13T11:55:14;10.48;;;7.90;;
13032;SDS011;6583;42.632;23.298;2023-07-13T11:57:44;10.43;;;7.70;;
13032;SDS011;6583;42.632;23.298;2023-07-13T12:00:16;9.43;;;7.50;;
13032;SDS011;6583;42.632;23.298;2023-07-13T12:02:47;9.05;;;7.07;;
13032;SDS011;6583;42.632;23.298;2023-07-13T12:05:17;12.30;;;7.88;;
13032;SDS011;6583;42.632;23.298;2023-07-13T12:07:45;10.20;;;7.75;;
13032;SDS011;6583;42.632;23.298;2023-07-13T12:10:18;9.70;;;7.78;;
13032;SDS011;6583;42.632;23.298;2023-07-13T12:12:48;9.88;;;7.63;;
13032;SDS011;6583;42.632;23.298;2023-07-13T12:15:17;10.95;;;8.10;;
13032;SDS011;6583;42.632;23.298;2023-07-13T12:17:45;11.88;;;8.13;;
13032;SDS011;6583;42.632;23.298;2023-07-13T12:20:17;10.95;;;8.02;;
13032;SDS011;6583;42.632;23.298;2023-07-13T12:22:48;10.93;;;7.57;;
13032;SDS011;6583;42.632;23.298;2023-07-13T12:25:16;15.15;;;7.80;;
13032;SDS011;6583;42.632;23.298;2023-07-13T12:27:47;8.82;;;7.90;;
13032;SDS011;6583;42.632;23.298;2023-07-13T12:30:25;10.48;;;7.60;;
13032;SDS011;6583;42.632;23.298;2023-07-13T12:32:59;11.07;;;8.18;;
13032;SDS011;6583;42.632;23.298;2023-07-13T12:35:28;11.70;;;7.35;;
13032;SDS011;6583;42.632;23.298;2023-07-13T12:37:58;8.88;;;7.00;;
13032;SDS011;6583;42.632;23.298;2023-07-13T12:40:27;9.25;;;7.53;;
13032;SDS011;6583;42.632;23.298;2023-07-13T12:42:59;9.00;;;7.60;;
13032;SDS011;6583;42.632;23.298;2023-07-13T12:45:29;9.95;;;7.65;;
13032;SDS011;6583;42.632;23.298;2023-07-13T12:47:57;9.60;;;7.80;;
13032;SDS011;6583;42.632;23.298;2023-07-13T12:50:28;8.85;;;7.80;;
13032;SDS011;6583;42.632;23.298;2023-07-13T12:53:01;11.00;;;7.60;;
13032;SDS011;6583;42.632;23.298;2023-07-13T12:55:37;8.07;;;7.25;;
13032;SDS011;6583;42.632;23.298;2023-07-13T12:58:13;9.57;;;8.15;;
13032;SDS011;6583;42.632;23.298;2023-07-13T13:00:48;17.52;;;8.80;;
13032;SDS011;6583;42.632;23.298;2023-07-13T13:03:20;11.57;;;7.72;;
13032;SDS011;6583;42.632;23.298;2023-07-13T13:05:56;8.65;;;7.40;;
13032;SDS011;6583;42.632;23.298;2023-07-13T13:08:24;11.82;;;7.32;;
13032;SDS011;6583;42.632;23.298;2023-07-13T13:10:51;9.60;;;7.93;;
13032;SDS011;6583;42.632;23.298;2023-07-13T13:13:19;13.30;;;7.55;;
13032;SDS011;6583;42.632;23.298;2023-07-13T13:15:46;10.65;;;7.35;;
13032;SDS011;6583;42.632;23.298;2023-07-13T13:18:17;11.75;;;7.93;;
13032;SDS011;6583;42.632;23.298;2023-07-13T13:20:45;13.20;;;7.97;;
13032;SDS011;6583;42.632;23.298;2023-07-13T13:23:12;12.50;;;7.82;;
13032;SDS011;6583;42.632;23.298;2023-07-13T13:25:42;10.73;;;7.72;;
13032;SDS011;6583;42.632;23.298;2023-07-13T13:28:12;12.32;;;8.02;;
13032;SDS011;6583;42.632;23.298;2023-07-13T13:30:43;10.10;;;7.63;;
13032;SDS011;6583;42.632;23.298;2023-07-13T13:33:10;12.38;;;7.90;;
13032;SDS011;6583;42.632;23.298;2023-07-13T13:35:39;9.48;;;7.20;;
13032;SDS011;6583;42.632;23.298;2023-07-13T13:38:09;12.25;;;7.50;;
13032;SDS011;6583;42.632;23.298;2023-07-13T13:40:37;11.15;;;8.02;;
13032;SDS011;6583;42.632;23.298;2023-07-13T13:43:08;12.90;;;8.02;;
13032;SDS011;6583;42.632;23.298;2023-07-13T13:45:40;10.02;;;7.70;;
13032;SDS011;6583;42.632;23.298;2023-07-13T13:48:12;10.73;;;7.15;;
13032;SDS011;6583;42.632;23.298;2023-07-13T13:50:41;10.88;;;7.78;;
13032;SDS011;6583;42.632;23.298;2023-07-13T13:53:09;8.73;;;7.20;;
13032;SDS011;6583;42.632;23.298;2023-07-13T13:55:37;10.80;;;7.35;;
13032;SDS011;6583;42.632;23.298;2023-07-13T13:58:06;12.15;;;6.43;;
13032;SDS011;6583;42.632;23.298;2023-07-13T14:00:34;11.95;;;6.88;;
13032;SDS011;6583;42.632;23.298;2023-07-13T14:03:02;9.30;;;7.05;;
13032;SDS011;6583;42.632;23.298;2023-07-13T14:05:32;8.75;;;7.28;;
13032;SDS011;6583;42.632;23.298;2023-07-13T14:07:58;11.98;;;7.57;;
13032;SDS011;6583;42.632;23.298;2023-07-13T14:10:25;10.23;;;7.22;;
13032;SDS011;6583;42.632;23.298;2023-07-13T14:12:53;12.27;;;7.43;;
13032;SDS011;6583;42.632;23.298;2023-07-13T14:15:22;10.27;;;7.47;;
13032;SDS011;6583;42.632;23.298;2023-07-13T14:17:52;11.55;;;6.93;;
13032;SDS011;6583;42.632;23.298;2023-07-13T14:20:21;10.35;;;7.13;;
13032;SDS011;6583;42.632;23.298;2023-07-13T14:22:50;11.07;;;7.50;;
13032;SDS011;6583;42.632;23.298;2023-07-13T14:25:18;11.50;;;7.43;;
13032;SDS011;6583;42.632;23.298;2023-07-13T14:27:46;8.93;;;7.20;;
13032;SDS011;6583;42.632;23.298;2023-07-13T14:30:18;10.30;;;6.63;;
13032;SDS011;6583;42.632;23.298;2023-07-13T14:32:46;10.23;;;5.90;;
13032;SDS011;6583;42.632;23.298;2023-07-13T14:35:14;11.02;;;6.30;;
13032;SDS011;6583;42.632;23.298;2023-07-13T14:37:44;12.43;;;5.88;;
13032;SDS011;6583;42.632;23.298;2023-07-13T14:40:12;9.35;;;5.90;;
13032;SDS011;6583;42.632;23.298;2023-07-13T14:42:40;8.75;;;5.15;;
13032;SDS011;6583;42.632;23.298;2023-07-13T14:45:12;8.77;;;5.55;;
13032;SDS011;6583;42.632;23.298;2023-07-13T14:47:40;11.45;;;5.50;;
13032;SDS011;6583;42.632;23.298;2023-07-13T14:50:12;14.82;;;5.80;;